sensor_id;sensor_type;location;lat;lon;timestamp;pressure;altitude;pressure_sealevel;temperature;humidity
967;BME280;56108;48.730;9.304;2024-03-25T00:01:58;96765.63;;;3.82;100.00
967;BME280;56108;48.730;9.304;2024-03-25T00:04:03;96773.41;;;3.83;100.00
967;BME280;56108;48.730;9.304;2024-03-25T00:06:07;96773.91;;;3.90;100.00
967;BME280;56108;48.730;9.304;2024-03-25T00:08:11;96775.13;;;3.84;100.00
967;BME280;56108;48.730;9.304;2024-03-25T00:10:15;96777.94;;;3.81;100.00
967;BME280;56108;48.730;9.304;2024-03-25T00:12:20;96778.84;;;3.96;100.00
967;BME280;56108;48.730;9.304;2024-03-25T00:14:24;96784.19;;;3.95;100.00
967;BME280;56108;48.730;9.304;2024-03-25T00:16:29;96784.19;;;3.95;100.00
967;BME280;56108;48.730;9.304;2024-03-25T00:18:35;96782.75;;;3.89;100.00
967;BME280;56108;48.730;9.304;2024-03-25T00:20:40;96781.75;;;3.91;100.00
967;BME280;56108;48.730;9.304;2024-03-25T00:22:44;96780.03;;;3.90;100.00
967;BME280;56108;48.730;9.304;2024-03-25T00:24:48;96780.81;;;3.92;100.00
967;BME280;56108;48.730;9.304;2024-03-25T00:26:53;96784.78;;;3.84;100.00
967;BME280;56108;48.730;9.304;2024-03-25T00:28:57;96778.94;;;3.95;100.00
967;BME280;56108;48.730;9.304;2024-03-25T00:31:01;96782.31;;;3.97;100.00
967;BME280;56108;48.730;9.304;2024-03-25T00:33:05;96783.25;;;3.96;100.00
967;BME280;56108;48.730;9.304;2024-03-25T00:35:13;96784.19;;;3.95;100.00
967;BME280;56108;48.730;9.304;2024-03-25T00:37:17;96777.50;;;3.89;100.00
967;BME280;56108;48.730;9.304;2024-03-25T00:39:22;96783.00;;;4.00;100.00
967;BME280;56108;48.730;9.304;2024-03-25T00:41:26;96773.25;;;3.86;100.00
967;BME280;56108;48.730;9.304;2024-03-25T00:43:31;96775.72;;;3.89;100.00
967;BME280;56108;48.730;9.304;2024-03-25T00:45:35;96774.75;;;3.90;100.00
967;BME280;56108;48.730;9.304;2024-03-25T00:47:39;96775.03;;;3.86;100.00
967;BME280;56108;48.730;9.304;2024-03-25T00:49:43;96773.50;;;3.98;100.00
967;BME280;56108;48.730;9.304;2024-03-25T00:51:51;96780.81;;;3.92;100.00
967;BME280;56108;48.730;9.304;2024-03-25T00:53:55;96784.94;;;3.97;100.00
967;BME280;56108;48.730;9.304;2024-03-25T00:55:59;96777.25;;;3.93;100.00
967;BME280;56108;48.730;9.304;2024-03-25T00:58:04;96778.53;;;3.86;100.00
967;BME280;56108;48.730;9.304;2024-03-25T01:00:09;96777.59;;;3.87;100.00
967;BME280;56108;48.730;9.304;2024-03-25T01:02:13;96777.34;;;3.92;100.00
967;BME280;56108;48.730;9.304;2024-03-25T01:04:17;96775.72;;;3.89;100.00
967;BME280;56108;48.730;9.304;2024-03-25T01:06:21;96776.41;;;3.93;100.00
967;BME280;56108;48.730;9.304;2024-03-25T01:08:29;96778.25;;;3.91;100.00
967;BME280;56108;48.730;9.304;2024-03-25T01:10:33;96779.38;;;4.03;100.00
967;BME280;56108;48.730;9.304;2024-03-25T01:12:37;96771.72;;;3.98;100.00
967;BME280;56108;48.730;9.304;2024-03-25T01:14:41;96773.16;;;4.04;100.00
967;BME280;56108;48.730;9.304;2024-03-25T01:16:45;96772.31;;;4.03;100.00
967;BME280;56108;48.730;9.304;2024-03-25T01:18:49;96776.19;;;3.96;100.00
967;BME280;56108;48.730;9.304;2024-03-25T01:20:54;96770.03;;;3.97;100.00
967;BME280;56108;48.730;9.304;2024-03-25T01:22:58;96768.16;;;3.99;100.00
967;BME280;56108;48.730;9.304;2024-03-25T01:25:06;96766.63;;;3.95;100.00
967;BME280;56108;48.730;9.304;2024-03-25T01:27:11;96769.44;;;3.92;100.00
967;BME280;56108;48.730;9.304;2024-03-25T01:29:15;96765.88;;;3.93;100.00
967;BME280;56108;48.730;9.304;2024-03-25T01:31:19;96760.50;;;3.95;100.00
967;BME280;56108;48.730;9.304;2024-03-25T01:33:23;96761.22;;;3.82;100.00
967;BME280;56108;48.730;9.304;2024-03-25T01:35:28;96761.22;;;3.82;100.00
967;BME280;56108;48.730;9.304;2024-03-25T01:37:32;96756.59;;;3.86;100.00
967;BME280;56108;48.730;9.304;2024-03-25T01:39:36;96755.25;;;3.79;100.00
967;BME280;56108;48.730;9.304;2024-03-25T01:41:44;96746.94;;;3.71;100.00
967;BME280;56108;48.730;9.304;2024-03-25T01:43:48;96756.09;;;3.79;100.00
967;BME280;56108;48.730;9.304;2024-03-25T01:45:53;96755.00;;;3.83;100.00
967;BME280;56108;48.730;9.304;2024-03-25T01:47:58;96747.59;;;3.74;100.00
967;BME280;56108;48.730;9.304;2024-03-25T01:50:03;96750.59;;;3.68;100.00
967;BME280;56108;48.730;9.304;2024-03-25T01:52:08;96750.59;;;3.68;100.00
967;BME280;56108;48.730;9.304;2024-03-25T01:54:13;96743.19;;;3.59;100.00
967;BME280;56108;48.730;9.304;2024-03-25T01:56:18;96750.34;;;3.73;100.00
967;BME280;56108;48.730;9.304;2024-03-25T01:58:26;96753.56;;;3.78;100.00
967;BME280;56108;48.730;9.304;2024-03-25T02:00:31;96756.28;;;3.76;100.00
967;BME280;56108;48.730;9.304;2024-03-25T02:02:37;96761.97;;;3.84;100.00
967;BME280;56108;48.730;9.304;2024-03-25T02:04:42;96753.38;;;3.81;100.00
967;BME280;56108;48.730;9.304;2024-03-25T02:06:46;96756.19;;;3.78;100.00
967;BME280;56108;48.730;9.304;2024-03-25T02:08:51;96759.56;;;3.80;100.00
967;BME280;56108;48.730;9.304;2024-03-25T02:10:57;96754.56;;;3.75;100.00
967;BME280;56108;48.730;9.304;2024-03-25T02:13:03;96742.69;;;3.68;100.00
967;BME280;56108;48.730;9.304;2024-03-25T02:15:12;96746.59;;;3.77;100.00
967;BME280;56108;48.730;9.304;2024-03-25T02:17:17;96745.91;;;3.73;100.00
967;BME280;56108;48.730;9.304;2024-03-25T02:19:22;96750.59;;;3.68;100.00
967;BME280;56108;48.730;9.304;2024-03-25T02:21:27;96749.25;;;3.77;100.00
967;BME280;56108;48.730;9.304;2024-03-25T02:23:32;96751.03;;;3.76;100.00
967;BME280;56108;48.730;9.304;2024-03-25T02:25:39;96753.91;;;3.72;100.00
967;BME280;56108;48.730;9.304;2024-03-25T02:27:47;96751.34;;;3.70;100.00
967;BME280;56108;48.730;9.304;2024-03-25T02:29:51;96756.19;;;3.78;100.00
967;BME280;56108;48.730;9.304;2024-03-25T02:31:55;96764.84;;;3.80;100.00
967;BME280;56108;48.730;9.304;2024-03-25T02:34:00;96763.06;;;3.80;100.00
967;BME280;56108;48.730;9.304;2024-03-25T02:36:04;96766.47;;;3.82;100.00
967;BME280;56108;48.730;9.304;2024-03-25T02:38:09;96769.00;;;3.84;100.00
967;BME280;56108;48.730;9.304;2024-03-25T02:40:17;96764.78;;;3.81;100.00
967;BME280;56108;48.730;9.304;2024-03-25T02:42:22;96766.03;;;3.74;100.00
967;BME280;56108;48.730;9.304;2024-03-25T02:44:30;96761.38;;;3.79;100.00
967;BME280;56108;48.730;9.304;2024-03-25T02:46:35;96767.56;;;3.78;100.00
967;BME280;56108;48.730;9.304;2024-03-25T02:48:39;96767.22;;;3.84;100.00
967;BME280;56108;48.730;9.304;2024-03-25T02:50:43;96765.09;;;3.91;100.00
967;BME280;56108;48.730;9.304;2024-03-25T02:52:47;96759.56;;;3.80;100.00
967;BME280;56108;48.730;9.304;2024-03-25T02:54:52;96761.00;;;3.85;100.00
967;BME280;56108;48.730;9.304;2024-03-25T02:56:56;96759.16;;;3.87;100.00
967;BME280;56108;48.730;9.304;2024-03-25T02:59:00;96757.13;;;3.77;100.00
967;BME280;56108;48.730;9.304;2024-03-25T03:01:07;96751.34;;;3.70;100.00
967;BME280;56108;48.730;9.304;2024-03-25T03:03:12;96747.81;;;3.71;100.00
967;BME280;56108;48.730;9.304;2024-03-25T03:05:16;96753.66;;;3.92;100.00
967;BME280;56108;48.730;9.304;2024-03-25T03:07:20;96751.28;;;3.87;100.00
967;BME280;56108;48.730;9.304;2024-03-25T03:09:24;96759.75;;;3.92;100.00
967;BME280;56108;48.730;9.304;2024-03-25T03:11:29;96759.16;;;3.87;100.00
967;BME280;56108;48.730;9.304;2024-03-25T03:13:33;96768.16;;;3.83;100.00
967;BME280;56108;48.730;9.304;2024-03-25T03:15:37;96757.72;;;3.82;100.00
967;BME280;56108;48.730;9.304;2024-03-25T03:17:44;96753.97;;;3.70;100.00
967;BME280;56108;48.730;9.304;2024-03-25T03:19:48;96754.91;;;3.69;100.00
967;BME280;56108;48.730;9.304;2024-03-25T03:21:53;96748.47;;;3.59;100.00
967;BME280;56108;48.730;9.304;2024-03-25T03:23:57;96744.22;;;3.72;100.00
967;BME280;56108;48.730;9.304;2024-03-25T03:26:01;96747.28;;;3.64;100.00
967;BME280;56108;48.730;9.304;2024-03-25T03:28:06;96742.19;;;3.61;100.00
967;BME280;56108;48.730;9.304;2024-03-25T03:30:11;96743.03;;;3.46;100.00
967;BME280;56108;48.730;9.304;2024-03-25T03:32:15;96730.97;;;3.42;100.00
967;BME280;56108;48.730;9.304;2024-03-25T03:34:22;96732.66;;;3.43;100.00
967;BME280;56108;48.730;9.304;2024-03-25T03:36:26;96724.44;;;3.33;100.00
967;BME280;56108;48.730;9.304;2024-03-25T03:38:30;96729.38;;;3.39;100.00
967;BME280;56108;48.730;9.304;2024-03-25T03:40:35;96725.56;;;3.29;100.00
967;BME280;56108;48.730;9.304;2024-03-25T03:42:39;96728.44;;;3.25;100.00
967;BME280;56108;48.730;9.304;2024-03-25T03:44:43;96723.50;;;3.19;100.00
967;BME280;56108;48.730;9.304;2024-03-25T03:46:47;96719.84;;;3.05;100.00
967;BME280;56108;48.730;9.304;2024-03-25T03:48:51;96724.34;;;3.03;100.00
967;BME280;56108;48.730;9.304;2024-03-25T03:50:58;96715.69;;;3.17;100.00
967;BME280;56108;48.730;9.304;2024-03-25T03:53:03;96719.41;;;3.13;100.00
967;BME280;56108;48.730;9.304;2024-03-25T03:55:07;96721.03;;;3.16;100.00
967;BME280;56108;48.730;9.304;2024-03-25T03:57:12;96721.06;;;3.31;100.00
967;BME280;56108;48.730;9.304;2024-03-25T03:59:16;96729.28;;;3.25;100.00
967;BME280;56108;48.730;9.304;2024-03-25T04:01:20;96730.38;;;3.21;100.00
967;BME280;56108;48.730;9.304;2024-03-25T04:03:25;96737.75;;;3.14;100.00
967;BME280;56108;48.730;9.304;2024-03-25T04:05:29;96738.09;;;3.24;100.00
967;BME280;56108;48.730;9.304;2024-03-25T04:07:36;96734.03;;;3.19;100.00
967;BME280;56108;48.730;9.304;2024-03-25T04:09:40;96738.78;;;3.44;100.00
967;BME280;56108;48.730;9.304;2024-03-25T04:11:45;96738.13;;;3.40;100.00
967;BME280;56108;48.730;9.304;2024-03-25T04:13:49;96739.81;;;3.41;100.00
967;BME280;56108;48.730;9.304;2024-03-25T04:15:53;96738.09;;;3.24;100.00
967;BME280;56108;48.730;9.304;2024-03-25T04:17:57;96734.56;;;3.41;100.00
967;BME280;56108;48.730;9.304;2024-03-25T04:20:02;96729.53;;;3.36;100.00
967;BME280;56108;48.730;9.304;2024-03-25T04:22:06;96733.75;;;3.39;100.00
967;BME280;56108;48.730;9.304;2024-03-25T04:24:13;96731.47;;;3.33;100.00
967;BME280;56108;48.730;9.304;2024-03-25T04:26:17;96728.25;;;3.28;100.00
967;BME280;56108;48.730;9.304;2024-03-25T04:28:22;96729.88;;;3.30;100.00
967;BME280;56108;48.730;9.304;2024-03-25T04:30:26;96727.91;;;3.34;100.00
967;BME280;56108;48.730;9.304;2024-03-25T04:32:30;96729.28;;;3.25;100.00
967;BME280;56108;48.730;9.304;2024-03-25T04:34:35;96732.00;;;3.24;100.00
967;BME280;56108;48.730;9.304;2024-03-25T04:36:39;96739.88;;;3.24;100.00
967;BME280;56108;48.730;9.304;2024-03-25T04:38:43;96738.97;;;3.07;100.00
967;BME280;56108;48.730;9.304;2024-03-25T04:40:50;96730.69;;;2.99;100.00
967;BME280;56108;48.730;9.304;2024-03-25T04:42:55;96718.50;;;3.14;100.00
967;BME280;56108;48.730;9.304;2024-03-25T04:44:59;96718.91;;;3.06;100.00
967;BME280;56108;48.730;9.304;2024-03-25T04:47:03;96722.25;;;3.26;100.00
967;BME280;56108;48.730;9.304;2024-03-25T04:49:08;96730.94;;;3.10;100.00
967;BME280;56108;48.730;9.304;2024-03-25T04:51:12;96729.84;;;3.14;100.00
967;BME280;56108;48.730;9.304;2024-03-25T04:53:16;96729.31;;;3.08;100.00
967;BME280;56108;48.730;9.304;2024-03-25T04:55:20;96720.34;;;3.12;100.00
967;BME280;56108;48.730;9.304;2024-03-25T04:57:27;96729.31;;;3.08;100.00
967;BME280;56108;48.730;9.304;2024-03-25T04:59:32;96726.34;;;2.98;100.00
967;BME280;56108;48.730;9.304;2024-03-25T05:01:36;96721.13;;;3.14;100.00
967;BME280;56108;48.730;9.304;2024-03-25T05:03:40;96731.13;;;3.23;100.00
967;BME280;56108;48.730;9.304;2024-03-25T05:05:44;96725.34;;;3.17;100.00
967;BME280;56108;48.730;9.304;2024-03-25T05:07:49;96734.56;;;3.08;100.00
967;BME280;56108;48.730;9.304;2024-03-25T05:09:53;96728.97;;;2.98;100.00
967;BME280;56108;48.730;9.304;2024-03-25T05:11:57;96731.09;;;3.07;100.00
967;BME280;56108;48.730;9.304;2024-03-25T05:14:04;96728.22;;;3.12;100.00
967;BME280;56108;48.730;9.304;2024-03-25T05:16:09;96727.81;;;3.04;100.00
967;BME280;56108;48.730;9.304;2024-03-25T05:18:13;96738.59;;;3.15;100.00
967;BME280;56108;48.730;9.304;2024-03-25T05:20:17;96738.69;;;3.13;100.00
967;BME280;56108;48.730;9.304;2024-03-25T05:22:21;96733.00;;;3.21;100.00
967;BME280;56108;48.730;9.304;2024-03-25T05:24:25;96739.88;;;3.24;100.00
967;BME280;56108;48.730;9.304;2024-03-25T05:26:30;96752.34;;;3.20;100.00
967;BME280;56108;48.730;9.304;2024-03-25T05:28:35;96746.00;;;3.24;100.00
967;BME280;56108;48.730;9.304;2024-03-25T05:30:42;96753.53;;;3.30;100.00
967;BME280;56108;48.730;9.304;2024-03-25T05:32:47;96752.69;;;3.30;100.00
967;BME280;56108;48.730;9.304;2024-03-25T05:34:51;96752.78;;;3.44;100.00
967;BME280;56108;48.730;9.304;2024-03-25T05:36:55;96758.03;;;3.44;100.00
967;BME280;56108;48.730;9.304;2024-03-25T05:38:59;96762.53;;;3.42;100.00
967;BME280;56108;48.730;9.304;2024-03-25T05:41:04;96760.84;;;3.41;100.00
967;BME280;56108;48.730;9.304;2024-03-25T05:43:08;96766.63;;;3.48;100.00
967;BME280;56108;48.730;9.304;2024-03-25T05:45:12;96775.09;;;3.37;100.00
967;BME280;56108;48.730;9.304;2024-03-25T05:47:19;96770.44;;;3.42;100.00
967;BME280;56108;48.730;9.304;2024-03-25T05:49:24;96774.50;;;3.48;100.00
967;BME280;56108;48.730;9.304;2024-03-25T05:51:28;96774.09;;;3.55;100.00
967;BME280;56108;48.730;9.304;2024-03-25T05:53:33;96786.75;;;3.80;100.00
967;BME280;56108;48.730;9.304;2024-03-25T05:55:37;96794.28;;;3.71;100.00
967;BME280;56108;48.730;9.304;2024-03-25T05:57:42;96796.59;;;3.61;100.00
967;BME280;56108;48.730;9.304;2024-03-25T05:59:46;96790.41;;;3.78;100.00
967;BME280;56108;48.730;9.304;2024-03-25T06:01:50;96792.94;;;3.79;100.00
967;BME280;56108;48.730;9.304;2024-03-25T06:03:57;96787.34;;;3.85;100.00
967;BME280;56108;48.730;9.304;2024-03-25T06:06:02;96789.22;;;3.99;100.00
967;BME280;56108;48.730;9.304;2024-03-25T06:08:07;96786.47;;;4.01;100.00
967;BME280;56108;48.730;9.304;2024-03-25T06:10:12;96798.19;;;4.11;100.00
967;BME280;56108;48.730;9.304;2024-03-25T06:12:16;96791.13;;;4.11;100.00
967;BME280;56108;48.730;9.304;2024-03-25T06:14:20;96804.22;;;4.29;100.00
967;BME280;56108;48.730;9.304;2024-03-25T06:16:24;96799.81;;;4.13;100.00
967;BME280;56108;48.730;9.304;2024-03-25T06:18:30;96808.47;;;4.00;100.00
967;BME280;56108;48.730;9.304;2024-03-25T06:20:36;96809.47;;;4.29;100.00
967;BME280;56108;48.730;9.304;2024-03-25T06:22:41;96804.13;;;4.30;100.00
967;BME280;56108;48.730;9.304;2024-03-25T06:24:45;96802.97;;;4.50;100.00
967;BME280;56108;48.730;9.304;2024-03-25T06:26:49;96810.53;;;4.86;100.00
967;BME280;56108;48.730;9.304;2024-03-25T06:28:55;96816.31;;;5.07;100.00
967;BME280;56108;48.730;9.304;2024-03-25T06:31:00;96816.03;;;5.12;100.00
967;BME280;56108;48.730;9.304;2024-03-25T06:33:19;96814.81;;;5.46;100.00
967;BME280;56108;48.730;9.304;2024-03-25T06:35:42;96813.47;;;5.53;100.00
967;BME280;56108;48.730;9.304;2024-03-25T06:37:47;96820.25;;;5.71;100.00
967;BME280;56108;48.730;9.304;2024-03-25T06:39:51;96820.75;;;5.92;100.00
967;BME280;56108;48.730;9.304;2024-03-25T06:41:55;96821.06;;;7.21;100.00
967;BME280;56108;48.730;9.304;2024-03-25T06:43:59;96832.13;;;8.63;100.00
967;BME280;56108;48.730;9.304;2024-03-25T06:46:04;96832.75;;;9.02;100.00
967;BME280;56108;48.730;9.304;2024-03-25T06:48:08;96846.91;;;9.94;99.07
967;BME280;56108;48.730;9.304;2024-03-25T06:50:12;96859.63;;;10.13;86.10
967;BME280;56108;48.730;9.304;2024-03-25T06:52:19;96866.59;;;9.91;85.07
967;BME280;56108;48.730;9.304;2024-03-25T06:54:24;96872.16;;;10.11;82.46
967;BME280;56108;48.730;9.304;2024-03-25T06:56:28;96869.50;;;10.22;82.51
967;BME280;56108;48.730;9.304;2024-03-25T06:58:32;96873.50;;;10.16;81.52
967;BME280;56108;48.730;9.304;2024-03-25T07:00:36;96867.34;;;9.82;86.13
967;BME280;56108;48.730;9.304;2024-03-25T07:02:41;96889.28;;;11.38;77.59
967;BME280;56108;48.730;9.304;2024-03-25T07:04:45;96916.84;;;12.92;66.62
967;BME280;56108;48.730;9.304;2024-03-25T07:06:49;96930.03;;;12.74;63.45
967;BME280;56108;48.730;9.304;2024-03-25T07:08:56;96918.44;;;12.23;66.89
967;BME280;56108;48.730;9.304;2024-03-25T07:11:00;96912.06;;;11.31;71.28
967;BME280;56108;48.730;9.304;2024-03-25T07:13:04;96884.31;;;10.81;76.97
967;BME280;56108;48.730;9.304;2024-03-25T07:15:09;96877.13;;;9.93;81.72
967;BME280;56108;48.730;9.304;2024-03-25T07:17:13;96857.94;;;8.97;90.76
967;BME280;56108;48.730;9.304;2024-03-25T07:19:18;96854.13;;;8.53;94.75
967;BME280;56108;48.730;9.304;2024-03-25T07:21:22;96852.38;;;8.28;97.69
967;BME280;56108;48.730;9.304;2024-03-25T07:23:26;96853.88;;;8.19;100.00
967;BME280;56108;48.730;9.304;2024-03-25T07:25:33;96843.34;;;8.43;100.00
967;BME280;56108;48.730;9.304;2024-03-25T07:27:37;96845.81;;;8.81;100.00
967;BME280;56108;48.730;9.304;2024-03-25T07:29:42;96860.34;;;9.92;88.59
967;BME280;56108;48.730;9.304;2024-03-25T07:31:46;96866.00;;;10.22;83.03
967;BME280;56108;48.730;9.304;2024-03-25T07:33:50;96886.13;;;11.86;74.32
967;BME280;56108;48.730;9.304;2024-03-25T07:35:54;96907.63;;;13.35;66.12
967;BME280;56108;48.730;9.304;2024-03-25T07:37:58;96922.41;;;13.29;61.96
967;BME280;56108;48.730;9.304;2024-03-25T07:40:03;96909.00;;;12.50;65.21
967;BME280;56108;48.730;9.304;2024-03-25T07:42:10;96887.81;;;10.81;71.45
967;BME280;56108;48.730;9.304;2024-03-25T07:44:15;96873.28;;;10.31;75.79
967;BME280;56108;48.730;9.304;2024-03-25T07:46:19;96864.69;;;10.05;76.77
967;BME280;56108;48.730;9.304;2024-03-25T07:48:23;96853.53;;;9.55;84.14
967;BME280;56108;48.730;9.304;2024-03-25T07:50:27;96845.59;;;9.08;88.08
967;BME280;56108;48.730;9.304;2024-03-25T07:52:31;96843.97;;;8.95;92.97
967;BME280;56108;48.730;9.304;2024-03-25T07:54:36;96841.03;;;8.86;93.51
967;BME280;56108;48.730;9.304;2024-03-25T07:56:40;96840.84;;;9.01;92.55
967;BME280;56108;48.730;9.304;2024-03-25T07:58:47;96829.50;;;8.99;97.18
967;BME280;56108;48.730;9.304;2024-03-25T08:00:51;96839.16;;;9.00;91.49
967;BME280;56108;48.730;9.304;2024-03-25T08:02:55;96847.47;;;8.71;90.10
967;BME280;56108;48.730;9.304;2024-03-25T08:04:59;96846.44;;;8.61;90.99
967;BME280;56108;48.730;9.304;2024-03-25T08:07:04;96830.72;;;8.47;94.74
967;BME280;56108;48.730;9.304;2024-03-25T08:09:08;96833.88;;;8.52;95.25
967;BME280;56108;48.730;9.304;2024-03-25T08:11:13;96827.22;;;8.33;96.22
967;BME280;56108;48.730;9.304;2024-03-25T08:13:17;96828.66;;;8.26;99.38
967;BME280;56108;48.730;9.304;2024-03-25T08:15:24;96820.78;;;8.38;99.95
967;BME280;56108;48.730;9.304;2024-03-25T08:17:28;96828.06;;;8.47;99.71
967;BME280;56108;48.730;9.304;2024-03-25T08:19:33;96828.63;;;8.39;98.24
967;BME280;56108;48.730;9.304;2024-03-25T08:21:37;96822.59;;;8.24;96.30
967;BME280;56108;48.730;9.304;2024-03-25T08:23:44;96823.22;;;8.28;98.74
967;BME280;56108;48.730;9.304;2024-03-25T08:25:48;96822.69;;;8.35;98.55
967;BME280;56108;48.730;9.304;2024-03-25T08:27:52;96822.59;;;8.24;94.47
967;BME280;56108;48.730;9.304;2024-03-25T08:29:57;96821.59;;;8.01;96.45
967;BME280;56108;48.730;9.304;2024-03-25T08:32:04;96815.84;;;8.20;99.22
967;BME280;56108;48.730;9.304;2024-03-25T08:34:09;96818.31;;;8.47;97.72
967;BME280;56108;48.730;9.304;2024-03-25T08:36:13;96815.09;;;8.18;94.17
967;BME280;56108;48.730;9.304;2024-03-25T08:38:17;96817.41;;;8.59;96.39
967;BME280;56108;48.730;9.304;2024-03-25T08:40:22;96817.22;;;8.74;93.49
967;BME280;56108;48.730;9.304;2024-03-25T08:42:26;96815.00;;;8.56;89.68
967;BME280;56108;48.730;9.304;2024-03-25T08:44:31;96803.13;;;8.13;94.29
967;BME280;56108;48.730;9.304;2024-03-25T08:46:35;96809.38;;;8.72;93.88
967;BME280;56108;48.730;9.304;2024-03-25T08:48:42;96812.34;;;8.92;86.20
967;BME280;56108;48.730;9.304;2024-03-25T08:50:46;96824.69;;;9.04;79.65
967;BME280;56108;48.730;9.304;2024-03-25T08:52:50;96820.06;;;9.41;80.50
967;BME280;56108;48.730;9.304;2024-03-25T08:54:54;96826.09;;;8.97;76.43
967;BME280;56108;48.730;9.304;2024-03-25T08:56:58;96816.13;;;8.76;78.49
967;BME280;56108;48.730;9.304;2024-03-25T08:59:03;96799.75;;;8.34;82.01
967;BME280;56108;48.730;9.304;2024-03-25T09:01:07;96801.81;;;8.79;78.53
967;BME280;56108;48.730;9.304;2024-03-25T09:03:11;96806.31;;;8.89;80.15
967;BME280;56108;48.730;9.304;2024-03-25T09:05:18;96803.66;;;8.89;79.33
967;BME280;56108;48.730;9.304;2024-03-25T09:07:22;96810.47;;;9.05;76.94
967;BME280;56108;48.730;9.304;2024-03-25T09:09:27;96816.88;;;8.78;73.79
967;BME280;56108;48.730;9.304;2024-03-25T09:11:46;96803.66;;;9.36;76.11
967;BME280;56108;48.730;9.304;2024-03-25T09:13:50;96802.81;;;9.80;74.50
967;BME280;56108;48.730;9.304;2024-03-25T09:15:54;96795.41;;;10.40;73.92
967;BME280;56108;48.730;9.304;2024-03-25T09:17:58;96797.63;;;10.67;73.64
967;BME280;56108;48.730;9.304;2024-03-25T09:20:04;96811.63;;;10.69;69.56
967;BME280;56108;48.730;9.304;2024-03-25T09:22:11;96807.16;;;10.15;69.31
967;BME280;56108;48.730;9.304;2024-03-25T09:24:15;96810.81;;;10.57;70.86
967;BME280;56108;48.730;9.304;2024-03-25T09:26:20;96804.81;;;10.55;70.05
967;BME280;56108;48.730;9.304;2024-03-25T09:28:24;96810.22;;;10.54;68.79
967;BME280;56108;48.730;9.304;2024-03-25T09:30:28;96804.34;;;10.50;68.46
967;BME280;56108;48.730;9.304;2024-03-25T09:32:32;96809.63;;;10.61;68.61
967;BME280;56108;48.730;9.304;2024-03-25T09:34:37;96820.59;;;10.68;65.30
967;BME280;56108;48.730;9.304;2024-03-25T09:36:41;96830.91;;;10.61;63.27
967;BME280;56108;48.730;9.304;2024-03-25T09:38:48;96821.75;;;10.86;64.69
967;BME280;56108;48.730;9.304;2024-03-25T09:40:53;96806.28;;;11.01;65.27
967;BME280;56108;48.730;9.304;2024-03-25T09:42:58;96838.22;;;11.54;58.57
967;BME280;56108;48.730;9.304;2024-03-25T09:45:07;96823.91;;;12.07;58.62
967;BME280;56108;48.730;9.304;2024-03-25T09:47:12;96824.22;;;11.62;59.69
967;BME280;56108;48.730;9.304;2024-03-25T09:49:16;96825.16;;;11.30;59.82
967;BME280;56108;48.730;9.304;2024-03-25T09:51:21;96828.38;;;11.75;59.96
967;BME280;56108;48.730;9.304;2024-03-25T09:53:25;96839.72;;;13.37;54.50
967;BME280;56108;48.730;9.304;2024-03-25T09:55:32;96849.88;;;14.27;52.08
967;BME280;56108;48.730;9.304;2024-03-25T09:57:37;96865.34;;;14.33;48.65
967;BME280;56108;48.730;9.304;2024-03-25T09:59:42;96849.50;;;13.56;50.91
967;BME280;56108;48.730;9.304;2024-03-25T10:01:47;96848.34;;;14.80;49.70
967;BME280;56108;48.730;9.304;2024-03-25T10:03:51;96862.47;;;15.35;46.73
967;BME280;56108;48.730;9.304;2024-03-25T10:05:56;96862.50;;;15.61;46.24
967;BME280;56108;48.730;9.304;2024-03-25T10:08:00;96863.75;;;16.19;45.09
967;BME280;56108;48.730;9.304;2024-03-25T10:10:05;96863.66;;;17.46;43.46
967;BME280;56108;48.730;9.304;2024-03-25T10:12:13;96887.88;;;15.31;40.43
967;BME280;56108;48.730;9.304;2024-03-25T10:14:18;96858.75;;;13.81;44.96
967;BME280;56108;48.730;9.304;2024-03-25T10:16:23;96846.44;;;13.02;45.01
967;BME280;56108;48.730;9.304;2024-03-25T10:18:27;96840.41;;;13.29;45.01
967;BME280;56108;48.730;9.304;2024-03-25T10:20:31;96834.06;;;14.61;43.31
967;BME280;56108;48.730;9.304;2024-03-25T10:22:41;96829.69;;;16.20;43.78
967;BME280;56108;48.730;9.304;2024-03-25T10:24:45;96838.03;;;16.93;41.73
967;BME280;56108;48.730;9.304;2024-03-25T10:26:50;96844.31;;;17.59;40.20
967;BME280;56108;48.730;9.304;2024-03-25T10:29:04;96861.88;;;16.88;37.39
967;BME280;56108;48.730;9.304;2024-03-25T10:31:09;96848.59;;;16.78;37.98
967;BME280;56108;48.730;9.304;2024-03-25T10:33:13;96849.63;;;16.93;37.85
967;BME280;56108;48.730;9.304;2024-03-25T10:35:17;96858.97;;;15.61;37.45
967;BME280;56108;48.730;9.304;2024-03-25T10:37:24;96843.81;;;15.70;39.11
967;BME280;56108;48.730;9.304;2024-03-25T10:39:31;96837.53;;;16.89;38.71
967;BME280;56108;48.730;9.304;2024-03-25T10:41:37;96829.78;;;16.36;39.76
967;BME280;56108;48.730;9.304;2024-03-25T10:43:43;96833.81;;;16.82;39.07
967;BME280;56108;48.730;9.304;2024-03-25T10:45:55;96843.78;;;16.98;38.19
967;BME280;56108;48.730;9.304;2024-03-25T10:48:04;96811.44;;;14.19;42.70
967;BME280;56108;48.730;9.304;2024-03-25T10:50:12;96803.00;;;13.00;43.98
967;BME280;56108;48.730;9.304;2024-03-25T10:52:20;96784.81;;;12.36;46.36
967;BME280;56108;48.730;9.304;2024-03-25T10:54:26;96783.19;;;11.43;47.54
967;BME280;56108;48.730;9.304;2024-03-25T10:56:30;96784.88;;;11.23;47.93
967;BME280;56108;48.730;9.304;2024-03-25T10:58:35;96757.56;;;11.31;50.60
967;BME280;56108;48.730;9.304;2024-03-25T11:00:40;96765.81;;;11.49;49.83
967;BME280;56108;48.730;9.304;2024-03-25T11:02:47;96764.94;;;11.39;48.63
967;BME280;56108;48.730;9.304;2024-03-25T11:04:52;96760.66;;;10.53;49.44
967;BME280;56108;48.730;9.304;2024-03-25T11:07:06;96751.38;;;10.47;50.64
967;BME280;56108;48.730;9.304;2024-03-25T11:09:22;96754.44;;;10.63;48.93
967;BME280;56108;48.730;9.304;2024-03-25T11:11:31;96745.53;;;10.10;49.77
967;BME280;56108;48.730;9.304;2024-03-25T11:13:36;96746.22;;;10.66;49.51
967;BME280;56108;48.730;9.304;2024-03-25T11:15:42;96738.25;;;10.34;51.50
967;BME280;56108;48.730;9.304;2024-03-25T11:17:51;96742.34;;;11.12;50.42
967;BME280;56108;48.730;9.304;2024-03-25T11:20:06;96719.47;;;12.01;50.92
967;BME280;56108;48.730;9.304;2024-03-25T11:22:11;96729.91;;;11.43;49.49
967;BME280;56108;48.730;9.304;2024-03-25T11:24:15;96721.88;;;10.71;51.10